createdAt,value
2022-08-25T00:02:26.742Z,101949.22
2022-08-25T00:05:32.233Z,101940.81
2022-08-25T00:08:40.030Z,101944.75
2022-08-25T00:11:45.294Z,101943.72
2022-08-25T00:14:48.967Z,101948.75
2022-08-25T00:17:52.783Z,101941.00
2022-08-25T00:20:56.405Z,101938.25
2022-08-25T00:24:03.407Z,101933.97
2022-08-25T00:27:07.554Z,101940.44
2022-08-25T00:30:15.873Z,101935.16
2022-08-25T00:33:20.874Z,101941.69
2022-08-25T00:36:24.482Z,101940.31
2022-08-25T00:39:29.646Z,101940.59
2022-08-25T00:42:33.380Z,101944.38
2022-08-25T00:45:37.611Z,101948.94
2022-08-25T00:48:44.689Z,101951.81
2022-08-25T00:51:53.558Z,101952.00
2022-08-25T00:55:08.005Z,101954.03
2022-08-25T00:58:21.851Z,101952.53
2022-08-25T01:01:25.827Z,101952.66
2022-08-25T01:04:29.666Z,101952.84
2022-08-25T01:07:33.593Z,101947.69
2022-08-25T01:10:43.024Z,101960.22
2022-08-25T01:13:56.981Z,101960.50
2022-08-25T01:17:01.169Z,101959.03
2022-08-25T01:20:29.181Z,101951.41
2022-08-25T01:23:34.709Z,101956.94
2022-08-25T01:26:38.409Z,101968.63
2022-08-25T01:29:42.588Z,101966.13
2022-08-25T01:32:46.950Z,101972.47
2022-08-25T01:36:29.343Z,101962.78
2022-08-25T01:39:37.043Z,101962.78
2022-08-25T01:43:13.189Z,101958.38
2022-08-25T01:51:07.453Z,101962.84
2022-08-25T01:54:11.606Z,101959.41
2022-08-25T01:57:17.950Z,101959.47
2022-08-25T02:00:24.213Z,101956.81
2022-08-25T02:03:29.947Z,101959.56
2022-08-25T02:06:36.602Z,101957.84
2022-08-25T02:09:41.251Z,101959.81
2022-08-25T02:12:46.287Z,101959.97
2022-08-25T02:15:56.452Z,101962.66
2022-08-25T02:24:00.084Z,101962.19
2022-08-25T02:27:04.459Z,101959.66
2022-08-25T02:30:11.722Z,101958.81
2022-08-25T02:33:15.440Z,101953.81
2022-08-25T02:36:19.844Z,101958.41
2022-08-25T02:39:23.633Z,101958.41
2022-08-25T02:42:27.820Z,101956.84
2022-08-25T02:45:33.225Z,101949.03
2022-08-25T02:48:37.605Z,101948.41
2022-08-25T02:51:41.290Z,101958.44
2022-08-25T02:54:44.962Z,101947.88
2022-08-25T02:57:49.054Z,101958.63
2022-08-25T03:00:55.930Z,101949.03
2022-08-25T03:04:00.933Z,101953.63
2022-08-25T03:07:05.229Z,101952.78
2022-08-25T03:10:13.557Z,101950.22
2022-08-25T03:13:18.047Z,101951.28
2022-08-25T03:16:23.625Z,101955.84
2022-08-25T03:19:31.575Z,101956.00
2022-08-25T03:22:35.302Z,101949.13
2022-08-25T03:26:00.688Z,101947.63
2022-08-25T03:29:06.016Z,101942.56
2022-08-25T03:32:11.618Z,101936.44
2022-08-25T03:35:15.726Z,101937.59
2022-08-25T03:38:19.423Z,101935.03
2022-08-25T03:41:28.987Z,101936.91
2022-08-25T03:44:33.644Z,101943.22
2022-08-25T03:47:39.500Z,101942.34
2022-08-25T03:50:51.613Z,101946.09
2022-08-25T03:53:56.404Z,101943.66
2022-08-25T03:57:00.072Z,101940.31
2022-08-25T04:00:04.863Z,101947.63
2022-08-25T04:03:09.830Z,101937.31
2022-08-25T04:06:13.876Z,101935.59
2022-08-25T04:09:17.519Z,101941.22
2022-08-25T04:12:21.083Z,101940.53
2022-08-25T04:15:28.097Z,101939.66
2022-08-25T04:18:35.241Z,101932.72
2022-08-25T04:21:40.664Z,101936.38
2022-08-25T04:24:44.328Z,101936.50
2022-08-25T04:27:48.443Z,101935.78
2022-08-25T04:30:52.308Z,101931.34
2022-08-25T04:33:57.445Z,101931.47
2022-08-25T04:37:03.344Z,101930.72
2022-08-25T04:40:08.638Z,101929.81
2022-08-25T04:43:12.635Z,101923.75
2022-08-25T04:46:20.790Z,101921.88
2022-08-25T04:49:25.966Z,101921.03
2022-08-25T04:52:29.640Z,101924.53
2022-08-25T04:55:33.352Z,101925.31
2022-08-25T04:58:38.402Z,101922.59
2022-08-25T05:01:43.790Z,101922.53
2022-08-25T05:04:48.939Z,101927.69
2022-08-25T05:07:52.585Z,101937.22
2022-08-25T05:10:57.056Z,101929.03
2022-08-25T05:14:03.290Z,101940.38
2022-08-25T05:17:08.015Z,101936.50
2022-08-25T05:20:13.462Z,101937.00
2022-08-25T05:23:17.190Z,101925.31
2022-08-25T05:26:23.276Z,101926.56
2022-08-25T05:29:27.093Z,101922.69
2022-08-25T05:32:30.727Z,101922.09
2022-08-25T05:35:35.931Z,101916.44
2022-08-25T05:38:41.033Z,101911.41
2022-08-25T05:41:45.313Z,101916.19
2022-08-25T05:44:48.877Z,101905.03
2022-08-25T05:47:52.715Z,101905.16
2022-08-25T05:51:00.491Z,101905.84
2022-08-25T05:54:04.796Z,101903.59
2022-08-25T05:57:09.301Z,101903.06
2022-08-25T06:00:14.353Z,101899.97
2022-08-25T06:03:17.630Z,101896.31
2022-08-25T06:06:24.654Z,101894.84
2022-08-25T06:09:28.547Z,101895.81
2022-08-25T06:12:36.096Z,101896.44
2022-08-25T06:15:39.689Z,101894.81
2022-08-25T06:18:43.327Z,101903.50
2022-08-25T06:21:48.285Z,101902.94
2022-08-25T06:24:51.945Z,101899.41
2022-08-25T06:27:56.503Z,101904.19
2022-08-25T06:31:01.366Z,101906.09
2022-08-25T06:34:06.091Z,101901.53
2022-08-25T06:37:11.152Z,101911.25
2022-08-25T06:40:16.657Z,101905.91
2022-08-25T06:43:20.671Z,101909.16
2022-08-25T06:46:35.570Z,101902.78
2022-08-25T06:49:42.210Z,101908.75
2022-08-25T06:52:47.172Z,101901.09
2022-08-25T06:56:01.291Z,101897.38
2022-08-25T06:59:10.342Z,101892.66
2022-08-25T07:02:14.085Z,101898.16
2022-08-25T07:05:33.687Z,101895.22
2022-08-25T07:08:39.277Z,101889.88
2022-08-25T07:11:44.359Z,101898.22
2022-08-25T07:15:03.617Z,101888.94
2022-08-25T07:18:13.180Z,101887.97
2022-08-25T07:21:21.710Z,101882.75
2022-08-25T07:24:29.394Z,101882.56
2022-08-25T07:27:33.164Z,101887.72
2022-08-25T07:30:36.742Z,101886.50
2022-08-25T07:34:01.594Z,101888.41
2022-08-25T07:37:05.867Z,101886.03
2022-08-25T07:40:15.444Z,101893.88
2022-08-25T07:43:20.306Z,101890.19
2022-08-25T07:46:24.031Z,101899.53
2022-08-25T07:49:35.932Z,101897.72
2022-08-25T07:52:43.552Z,101897.47
2022-08-25T07:55:48.788Z,101892.25
2022-08-25T07:58:52.631Z,101891.03
2022-08-25T08:01:56.294Z,101897.63
2022-08-25T08:05:01.139Z,101896.81
2022-08-25T08:08:05.746Z,101887.81
2022-08-25T08:11:18.397Z,101885.81
2022-08-25T08:14:22.335Z,101884.47
2022-08-25T08:17:26.414Z,101884.38
2022-08-25T08:20:32.454Z,101883.38
2022-08-25T08:23:47.324Z,101883.03
2022-08-25T08:26:58.770Z,101872.50
2022-08-25T08:30:03.190Z,101865.44
2022-08-25T08:33:11.723Z,101873.47
2022-08-25T08:36:16.764Z,101875.72
2022-08-25T08:39:20.474Z,101867.97
2022-08-25T08:42:48.963Z,101872.09
2022-08-25T08:45:54.695Z,101869.03
2022-08-25T08:49:05.688Z,101867.97
2022-08-25T08:52:14.858Z,101864.25
2022-08-25T08:55:30.496Z,101849.47
2022-08-25T08:58:44.553Z,101843.63
2022-08-25T09:01:56.502Z,101847.16
2022-08-25T09:05:07.070Z,101853.81
2022-08-25T09:08:15.030Z,101852.81
2022-08-25T09:11:36.667Z,101856.97
2022-08-25T09:15:12.878Z,101848.22
2022-08-25T09:18:28.064Z,101843.69
2022-08-25T09:21:45.498Z,101846.75
2022-08-25T09:25:08.338Z,101840.84
2022-08-25T09:28:22.731Z,101829.72
2022-08-25T09:31:33.092Z,101827.47
2022-08-25T09:34:37.249Z,101823.78
2022-08-25T09:37:40.984Z,101833.69
2022-08-25T09:40:48.567Z,101818.38
2022-08-25T09:43:55.620Z,101823.03
2022-08-25T09:47:05.490Z,101815.22
2022-08-25T09:50:19.133Z,101811.84
2022-08-25T09:53:24.586Z,101801.06
2022-08-25T09:56:32.495Z,101798.09
2022-08-25T09:59:38.230Z,101799.91
2022-08-25T10:02:44.674Z,101794.13
2022-08-25T10:06:06.636Z,101778.34
2022-08-25T10:09:24.171Z,101778.63
2022-08-25T10:12:42.489Z,101777.78
2022-08-25T10:15:48.593Z,101775.94
2022-08-25T10:19:09.200Z,101771.56
2022-08-25T10:22:24.916Z,101754.53
2022-08-25T10:25:32.311Z,101753.09
2022-08-25T10:28:48.272Z,101746.72
2022-08-25T10:31:58.919Z,101747.72
2022-08-25T10:35:17.111Z,101746.31
2022-08-25T10:38:39.242Z,101736.63
2022-08-25T10:42:02.436Z,101731.53
2022-08-25T10:45:38.558Z,101721.59
2022-08-25T10:49:00.372Z,101715.06
2022-08-25T10:52:16.532Z,101712.22
2022-08-25T10:55:30.684Z,101697.78
2022-08-25T10:59:07.490Z,101701.56
2022-08-25T11:03:05.177Z,101697.56
2022-08-25T11:06:19.691Z,101693.75
2022-08-25T11:09:32.192Z,101684.91
2022-08-25T11:12:46.263Z,101687.53
2022-08-25T11:16:18.780Z,101692.25
2022-08-25T11:19:31.097Z,101687.75
2022-08-25T11:22:47.071Z,101677.34
2022-08-25T11:25:55.532Z,101680.50
2022-08-25T11:29:11.397Z,101672.06
2022-08-25T11:32:19.744Z,101677.50
2022-08-25T11:35:34.085Z,101664.50
2022-08-25T11:39:00.845Z,101661.75
2022-08-25T11:42:24.755Z,101658.63
2022-08-25T11:46:02.161Z,101664.66
2022-08-25T11:49:35.711Z,101657.63
2022-08-25T11:52:56.367Z,101655.94
2022-08-25T11:56:05.619Z,101656.16
2022-08-25T11:59:10.934Z,101653.84
2022-08-25T12:02:34.966Z,101650.28
2022-08-25T12:06:19.436Z,101646.22
2022-08-25T12:09:25.308Z,101632.47
2022-08-25T12:12:38.390Z,101643.91
2022-08-25T12:16:02.439Z,101627.34
2022-08-25T12:19:31.642Z,101625.22
2022-08-25T12:22:58.396Z,101624.03
2022-08-25T12:26:11.112Z,101613.94
2022-08-25T12:29:28.902Z,101627.06
2022-08-25T12:33:05.772Z,101616.84
2022-08-25T12:36:12.732Z,101606.75
2022-08-25T12:39:24.766Z,101603.06
2022-08-25T12:42:36.444Z,101604.66
2022-08-25T12:45:47.825Z,101596.06
2022-08-25T12:49:03.747Z,101611.63
2022-08-25T12:52:17.131Z,101600.00
2022-08-25T12:55:23.867Z,101600.69
2022-08-25T12:58:58.835Z,101591.59
2022-08-25T13:02:54.228Z,101598.06
2022-08-25T13:06:38.947Z,101592.81
2022-08-25T13:10:22.170Z,101591.66
2022-08-25T13:13:47.091Z,101585.34
2022-08-25T13:16:55.797Z,101590.66
2022-08-25T13:20:21.764Z,101580.38
2022-08-25T13:23:31.904Z,101580.16
2022-08-25T13:26:48.035Z,101570.19
2022-08-25T13:29:55.988Z,101568.25
2022-08-25T13:33:01.002Z,101566.09
2022-08-25T13:36:36.678Z,101553.16
2022-08-25T13:39:56.453Z,101562.59
2022-08-25T13:43:11.740Z,101549.56
2022-08-25T13:46:21.575Z,101548.19
2022-08-25T13:49:27.901Z,101541.91
2022-08-25T13:52:34.791Z,101544.16
2022-08-25T13:55:52.246Z,101540.69
2022-08-25T13:58:58.578Z,101546.66
2022-08-25T14:02:02.490Z,101541.44
2022-08-25T14:05:07.650Z,101532.47
2022-08-25T14:08:34.462Z,101529.72
2022-08-25T14:11:48.035Z,101525.56
2022-08-25T14:15:01.867Z,101520.78
2022-08-25T14:18:13.907Z,101531.06
2022-08-25T14:21:22.043Z,101524.22
2022-08-25T14:24:27.032Z,101518.19
2022-08-25T14:27:35.971Z,101514.53
2022-08-25T14:30:49.463Z,101516.94
2022-08-25T14:34:00.814Z,101513.06
2022-08-25T14:37:13.710Z,101514.56
2022-08-25T14:40:21.410Z,101501.13
2022-08-25T14:43:32.051Z,101499.25
2022-08-25T14:46:42.900Z,101493.13
2022-08-25T14:49:48.047Z,101502.06
2022-08-25T14:52:52.360Z,101490.94
2022-08-25T14:55:58.743Z,101487.09
2022-08-25T14:59:05.262Z,101490.75
2022-08-25T15:02:09.801Z,101494.69
2022-08-25T15:05:19.186Z,101486.31
2022-08-25T15:08:40.940Z,101476.28
2022-08-25T15:11:50.760Z,101467.75
2022-08-25T15:14:56.353Z,101466.09
2022-08-25T15:18:04.882Z,101475.34
2022-08-25T15:21:09.870Z,101463.81
2022-08-25T15:24:17.446Z,101461.25
2022-08-25T15:27:23.297Z,101455.75
2022-08-25T15:30:30.997Z,101447.50
2022-08-25T15:33:34.944Z,101442.06
2022-08-25T15:36:39.738Z,101444.22
2022-08-25T15:39:47.196Z,101445.63
2022-08-25T15:42:50.941Z,101448.69
2022-08-25T15:45:55.972Z,101441.75
2022-08-25T15:48:59.940Z,101444.34
2022-08-25T15:52:04.789Z,101441.91
2022-08-25T15:55:11.234Z,101442.63
2022-08-25T15:58:14.896Z,101440.09
2022-08-25T16:01:24.783Z,101435.53
2022-08-25T16:04:31.183Z,101426.50
2022-08-25T16:07:35.020Z,101435.84
2022-08-25T16:10:42.772Z,101435.28
2022-08-25T16:13:47.711Z,101426.78
2022-08-25T16:16:53.278Z,101429.28
2022-08-25T16:20:02.323Z,101429.13
2022-08-25T16:23:06.215Z,101422.66
2022-08-25T16:26:12.959Z,101417.56
2022-08-25T16:29:17.286Z,101415.41
2022-08-25T16:32:22.251Z,101418.66
2022-08-25T16:35:26.222Z,101419.31
2022-08-25T16:38:29.926Z,101409.94
2022-08-25T16:41:35.784Z,101406.94
2022-08-25T16:44:40.127Z,101410.09
2022-08-25T16:47:46.298Z,101413.84
2022-08-25T16:50:49.839Z,101409.34
2022-08-25T16:54:11.037Z,101411.78
2022-08-25T16:57:15.185Z,101407.72
2022-08-25T17:00:25.315Z,101410.56
2022-08-25T17:03:34.135Z,101407.06
2022-08-25T17:06:51.711Z,101411.06
2022-08-25T17:09:58.087Z,101411.44
2022-08-25T17:13:01.691Z,101412.47
2022-08-25T17:16:06.510Z,101409.78
2022-08-25T17:19:15.173Z,101404.97
2022-08-25T17:22:18.810Z,101407.97
2022-08-25T17:25:23.287Z,101405.59
2022-08-25T17:28:31.488Z,101401.66
2022-08-25T17:31:39.827Z,101401.53
2022-08-25T17:34:45.231Z,101405.09
2022-08-25T17:37:49.980Z,101402.53
2022-08-25T17:40:55.263Z,101401.44
2022-08-25T17:44:00.172Z,101409.13
2022-08-25T17:47:03.818Z,101411.72
2022-08-25T17:50:11.210Z,101416.84
2022-08-25T17:53:17.374Z,101418.72
2022-08-25T17:56:27.399Z,101413.19
2022-08-25T17:59:32.436Z,101418.16
2022-08-25T18:02:36.338Z,101411.81
2022-08-25T18:05:45.138Z,101414.63
2022-08-25T18:08:52.209Z,101417.75
2022-08-25T18:11:58.476Z,101415.75
2022-08-25T18:15:02.573Z,101417.47
2022-08-25T18:18:07.035Z,101420.00
2022-08-25T18:21:16.534Z,101422.25
2022-08-25T18:24:20.146Z,101415.91
2022-08-25T18:27:23.756Z,101418.56
2022-08-25T18:30:29.778Z,101420.13
2022-08-25T18:33:33.839Z,101420.91
2022-08-25T18:36:40.662Z,101421.63
2022-08-25T18:40:02.688Z,101429.25
2022-08-25T18:43:11.910Z,101427.81
2022-08-25T18:46:16.357Z,101432.03
2022-08-25T18:49:20.521Z,101440.50
2022-08-25T18:52:25.623Z,101440.06
2022-08-25T18:55:33.554Z,101439.03
2022-08-25T18:58:37.851Z,101441.56
2022-08-25T19:01:43.468Z,101441.22
2022-08-25T19:04:52.009Z,101440.94
2022-08-25T19:07:57.045Z,101439.97
2022-08-25T19:11:01.027Z,101437.38
2022-08-25T19:14:05.119Z,101439.88
2022-08-25T19:17:16.627Z,101437.25
2022-08-25T19:20:21.673Z,101439.78
2022-08-25T19:23:28.516Z,101439.81
2022-08-25T19:26:34.513Z,101438.88
2022-08-25T19:29:38.171Z,101442.06
2022-08-25T19:32:44.746Z,101448.78
2022-08-25T19:35:51.833Z,101444.78
2022-08-25T19:39:00.586Z,101455.28
2022-08-25T19:42:04.522Z,101453.09
2022-08-25T19:45:11.939Z,101448.25
2022-08-25T19:48:16.398Z,101442.41
2022-08-25T19:51:21.772Z,101444.63
2022-08-25T19:54:33.489Z,101438.78
2022-08-25T19:57:42.653Z,101440.28
2022-08-25T20:00:48.328Z,101438.94
2022-08-25T20:03:55.343Z,101447.13
2022-08-25T20:07:01.040Z,101455.41
2022-08-25T20:10:14.074Z,101451.25
2022-08-25T20:13:18.554Z,101456.13
2022-08-25T20:16:23.645Z,101456.22
2022-08-25T20:19:27.482Z,101450.78
2022-08-25T20:22:34.554Z,101455.84
2022-08-25T20:25:38.559Z,101452.47
2022-08-25T20:28:43.746Z,101452.94
2022-08-25T20:31:47.670Z,101464.88
2022-08-25T20:34:55.671Z,101457.06
2022-08-25T20:38:01.085Z,101453.94
2022-08-25T20:41:10.743Z,101458.53
2022-08-25T20:44:15.210Z,101467.06
2022-08-25T20:47:21.076Z,101461.09
2022-08-25T20:50:24.959Z,101468.53
2022-08-25T20:53:29.527Z,101457.31
2022-08-25T20:56:35.263Z,101462.03
2022-08-25T20:59:39.067Z,101461.56
2022-08-25T21:02:42.814Z,101461.06
2022-08-25T21:05:46.446Z,101461.31
2022-08-25T21:08:49.999Z,101461.56
2022-08-25T21:12:25.461Z,101459.22
2022-08-25T21:15:31.546Z,101456.78
2022-08-25T21:18:36.412Z,101457.09
2022-08-25T21:21:41.105Z,101460.97
2022-08-25T21:24:47.501Z,101461.22
2022-08-25T21:27:53.758Z,101452.56
2022-08-25T21:30:57.394Z,101456.44
2022-08-25T21:34:02.343Z,101460.31
2022-08-25T21:37:07.606Z,101456.28
2022-08-25T21:43:18.534Z,101458.69
2022-08-25T21:46:26.248Z,101453.44
2022-08-25T21:49:31.575Z,101452.97
2022-08-25T21:52:42.300Z,101450.50
2022-08-25T21:55:46.182Z,101450.72
2022-08-25T21:58:51.206Z,101442.22
2022-08-25T22:01:58.435Z,101453.13
2022-08-25T22:05:02.070Z,101449.97
2022-08-25T22:08:06.016Z,101447.28
2022-08-25T22:11:11.458Z,101449.09
2022-08-25T22:14:16.727Z,101447.41
2022-08-25T22:17:21.090Z,101446.53
2022-08-25T22:20:28.914Z,101445.94
2022-08-25T22:23:33.707Z,101435.34
2022-08-25T22:26:49.209Z,101428.41
2022-08-25T22:29:54.551Z,101423.06
2022-08-25T22:32:59.531Z,101421.13
2022-08-25T22:36:03.574Z,101425.50
2022-08-25T22:39:09.247Z,101423.66
2022-08-25T22:42:13.087Z,101418.22
2022-08-25T22:45:18.897Z,101415.66
2022-08-25T22:48:23.142Z,101412.78
2022-08-25T22:51:31.640Z,101424.53
2022-08-25T22:54:35.291Z,101413.84
2022-08-25T22:57:39.809Z,101424.66
2022-08-25T23:00:44.766Z,101421.47
2022-08-25T23:03:50.444Z,101423.19
2022-08-25T23:06:54.253Z,101419.88
2022-08-25T23:10:02.916Z,101420.94
2022-08-25T23:13:07.235Z,101417.50
2022-08-25T23:16:13.804Z,101410.81
2022-08-25T23:19:18.816Z,101404.59
2022-08-25T23:22:22.735Z,101411.88
2022-08-25T23:25:27.527Z,101403.03
2022-08-25T23:28:31.731Z,101402.16
2022-08-25T23:31:36.861Z,101406.78
2022-08-25T23:34:41.688Z,101411.59
2022-08-25T23:37:46.379Z,101402.63
2022-08-25T23:40:51.299Z,101395.78
2022-08-25T23:43:55.737Z,101394.06
2022-08-25T23:47:00.763Z,101398.06
2022-08-25T23:50:04.779Z,101397.31
2022-08-25T23:53:09.371Z,101394.13
2022-08-25T23:56:13.026Z,101395.31
2022-08-25T23:59:17.636Z,101386.34
